sensor_id;sensor_type;location;lat;lon;timestamp;P1;durP1;ratioP1;P2;durP2;ratioP2
78183;SDS011;67442;44.570;18.610;2023-07-02T00:00:16;41.20;;;13.63;;
78183;SDS011;67442;44.570;18.610;2023-07-02T00:02:43;54.50;;;15.18;;
78183;SDS011;67442;44.570;18.610;2023-07-02T00:05:11;48.60;;;13.70;;
78183;SDS011;67442;44.570;18.610;2023-07-02T00:07:38;49.25;;;13.98;;
78183;SDS011;67442;44.570;18.610;2023-07-02T00:10:05;41.75;;;13.55;;
78183;SDS011;67442;44.570;18.610;2023-07-02T00:12:36;46.40;;;13.45;;
78183;SDS011;67442;44.570;18.610;2023-07-02T00:15:03;38.95;;;12.77;;
78183;SDS011;67442;44.570;18.610;2023-07-02T00:17:32;50.25;;;14.18;;
78183;SDS011;67442;44.570;18.610;2023-07-02T00:20:00;44.33;;;13.38;;
78183;SDS011;67442;44.570;18.610;2023-07-02T00:22:34;49.63;;;14.37;;
78183;SDS011;67442;44.570;18.610;2023-07-02T00:25:02;45.22;;;13.45;;
78183;SDS011;67442;44.570;18.610;2023-07-02T00:27:29;43.65;;;13.52;;
78183;SDS011;67442;44.570;18.610;2023-07-02T00:29:57;46.03;;;13.25;;
78183;SDS011;67442;44.570;18.610;2023-07-02T00:32:28;45.47;;;13.98;;
78183;SDS011;67442;44.570;18.610;2023-07-02T00:34:55;39.45;;;13.00;;
78183;SDS011;67442;44.570;18.610;2023-07-02T00:37:24;47.72;;;14.30;;
78183;SDS011;67442;44.570;18.610;2023-07-02T00:39:51;48.35;;;14.23;;
78183;SDS011;67442;44.570;18.610;2023-07-02T00:42:19;46.67;;;13.77;;
78183;SDS011;67442;44.570;18.610;2023-07-02T00:44:48;44.03;;;12.73;;
78183;SDS011;67442;44.570;18.610;2023-07-02T00:47:18;44.33;;;12.70;;
78183;SDS011;67442;44.570;18.610;2023-07-02T00:49:45;48.40;;;13.00;;
78183;SDS011;67442;44.570;18.610;2023-07-02T00:52:12;47.63;;;13.65;;
78183;SDS011;67442;44.570;18.610;2023-07-02T00:54:40;40.15;;;12.63;;
78183;SDS011;67442;44.570;18.610;2023-07-02T00:57:07;37.53;;;12.50;;
78183;SDS011;67442;44.570;18.610;2023-07-02T00:59:39;45.75;;;13.40;;
78183;SDS011;67442;44.570;18.610;2023-07-02T01:02:10;43.50;;;14.20;;
78183;SDS011;67442;44.570;18.610;2023-07-02T01:04:38;49.42;;;13.85;;
78183;SDS011;67442;44.570;18.610;2023-07-02T01:07:05;46.38;;;13.63;;
78183;SDS011;67442;44.570;18.610;2023-07-02T01:09:35;40.80;;;12.48;;
78183;SDS011;67442;44.570;18.610;2023-07-02T01:12:03;39.67;;;12.93;;
78183;SDS011;67442;44.570;18.610;2023-07-02T01:17:05;44.70;;;12.93;;
78183;SDS011;67442;44.570;18.610;2023-07-02T01:19:44;39.78;;;12.25;;
78183;SDS011;67442;44.570;18.610;2023-07-02T01:22:24;44.30;;;12.82;;
78183;SDS011;67442;44.570;18.610;2023-07-02T01:24:53;36.03;;;12.00;;
78183;SDS011;67442;44.570;18.610;2023-07-02T01:27:20;39.35;;;12.32;;
78183;SDS011;67442;44.570;18.610;2023-07-02T01:29:51;32.65;;;12.60;;
78183;SDS011;67442;44.570;18.610;2023-07-02T01:32:18;34.40;;;12.27;;
78183;SDS011;67442;44.570;18.610;2023-07-02T01:34:46;31.20;;;10.63;;
78183;SDS011;67442;44.570;18.610;2023-07-02T01:37:19;33.65;;;13.38;;
78183;SDS011;67442;44.570;18.610;2023-07-02T01:39:45;35.30;;;12.60;;
78183;SDS011;67442;44.570;18.610;2023-07-02T01:42:17;42.97;;;12.18;;
78183;SDS011;67442;44.570;18.610;2023-07-02T01:44:48;30.25;;;11.35;;
78183;SDS011;67442;44.570;18.610;2023-07-02T01:47:16;36.92;;;12.13;;
78183;SDS011;67442;44.570;18.610;2023-07-02T01:49:48;33.80;;;11.35;;
78183;SDS011;67442;44.570;18.610;2023-07-02T01:52:15;34.90;;;11.82;;
78183;SDS011;67442;44.570;18.610;2023-07-02T01:54:42;36.95;;;11.10;;
78183;SDS011;67442;44.570;18.610;2023-07-02T01:57:10;33.60;;;11.43;;
78183;SDS011;67442;44.570;18.610;2023-07-02T01:59:37;40.08;;;11.90;;
78183;SDS011;67442;44.570;18.610;2023-07-02T02:02:05;40.10;;;12.82;;
78183;SDS011;67442;44.570;18.610;2023-07-02T02:04:32;37.22;;;11.50;;
78183;SDS011;67442;44.570;18.610;2023-07-02T02:06:59;38.90;;;11.43;;
78183;SDS011;67442;44.570;18.610;2023-07-02T02:09:26;31.25;;;10.90;;
78183;SDS011;67442;44.570;18.610;2023-07-02T02:11:55;37.28;;;11.40;;
78183;SDS011;67442;44.570;18.610;2023-07-02T02:14:23;37.67;;;12.43;;
78183;SDS011;67442;44.570;18.610;2023-07-02T02:16:50;32.13;;;12.50;;
78183;SDS011;67442;44.570;18.610;2023-07-02T02:19:22;38.85;;;11.20;;
78183;SDS011;67442;44.570;18.610;2023-07-02T02:21:53;31.80;;;11.30;;
78183;SDS011;67442;44.570;18.610;2023-07-02T02:24:20;32.92;;;11.40;;
78183;SDS011;67442;44.570;18.610;2023-07-02T02:26:51;36.50;;;11.35;;
78183;SDS011;67442;44.570;18.610;2023-07-02T02:29:18;31.27;;;11.45;;
78183;SDS011;67442;44.570;18.610;2023-07-02T02:31:46;36.88;;;11.77;;
78183;SDS011;67442;44.570;18.610;2023-07-02T02:34:13;38.40;;;11.52;;
78183;SDS011;67442;44.570;18.610;2023-07-02T02:36:40;33.47;;;10.95;;
78183;SDS011;67442;44.570;18.610;2023-07-02T02:39:08;35.13;;;11.23;;
78183;SDS011;67442;44.570;18.610;2023-07-02T02:41:35;31.02;;;10.50;;
78183;SDS011;67442;44.570;18.610;2023-07-02T02:44:02;30.77;;;10.45;;
78183;SDS011;67442;44.570;18.610;2023-07-02T02:46:30;29.02;;;10.77;;
78183;SDS011;67442;44.570;18.610;2023-07-02T02:48:57;38.13;;;11.88;;
78183;SDS011;67442;44.570;18.610;2023-07-02T02:51:25;31.63;;;11.32;;
78183;SDS011;67442;44.570;18.610;2023-07-02T02:53:51;31.08;;;10.73;;
78183;SDS011;67442;44.570;18.610;2023-07-02T02:56:19;27.65;;;11.05;;
78183;SDS011;67442;44.570;18.610;2023-07-02T02:58:46;32.83;;;11.15;;
78183;SDS011;67442;44.570;18.610;2023-07-02T03:01:13;28.58;;;10.68;;
78183;SDS011;67442;44.570;18.610;2023-07-02T03:03:41;31.92;;;11.32;;
78183;SDS011;67442;44.570;18.610;2023-07-02T03:06:13;25.63;;;10.38;;
78183;SDS011;67442;44.570;18.610;2023-07-02T03:08:40;29.33;;;11.05;;
78183;SDS011;67442;44.570;18.610;2023-07-02T03:11:07;31.05;;;10.35;;
78183;SDS011;67442;44.570;18.610;2023-07-02T03:13:34;28.88;;;10.65;;
78183;SDS011;67442;44.570;18.610;2023-07-02T03:16:05;32.05;;;11.27;;
78183;SDS011;67442;44.570;18.610;2023-07-02T03:18:42;32.70;;;11.23;;
78183;SDS011;67442;44.570;18.610;2023-07-02T03:21:09;28.05;;;10.02;;
78183;SDS011;67442;44.570;18.610;2023-07-02T03:23:37;27.85;;;10.23;;
78183;SDS011;67442;44.570;18.610;2023-07-02T03:26:04;29.08;;;10.75;;
78183;SDS011;67442;44.570;18.610;2023-07-02T03:28:35;30.10;;;11.55;;
78183;SDS011;67442;44.570;18.610;2023-07-02T03:31:02;32.67;;;10.73;;
78183;SDS011;67442;44.570;18.610;2023-07-02T03:33:30;29.85;;;9.95;;
78183;SDS011;67442;44.570;18.610;2023-07-02T03:36:01;27.95;;;9.45;;
78183;SDS011;67442;44.570;18.610;2023-07-02T03:38:29;28.85;;;9.95;;
78183;SDS011;67442;44.570;18.610;2023-07-02T03:40:56;50.10;;;10.20;;
78183;SDS011;67442;44.570;18.610;2023-07-02T03:43:23;27.83;;;10.38;;
78183;SDS011;67442;44.570;18.610;2023-07-02T03:45:52;26.15;;;9.95;;
78183;SDS011;67442;44.570;18.610;2023-07-02T03:48:19;31.63;;;10.40;;
78183;SDS011;67442;44.570;18.610;2023-07-02T03:50:45;28.02;;;9.07;;
78183;SDS011;67442;44.570;18.610;2023-07-02T03:53:17;29.05;;;9.95;;
78183;SDS011;67442;44.570;18.610;2023-07-02T03:55:44;28.17;;;9.68;;
78183;SDS011;67442;44.570;18.610;2023-07-02T03:58:11;27.23;;;9.65;;
78183;SDS011;67442;44.570;18.610;2023-07-02T04:00:39;29.33;;;9.73;;
78183;SDS011;67442;44.570;18.610;2023-07-02T04:03:07;28.75;;;9.77;;
78183;SDS011;67442;44.570;18.610;2023-07-02T04:05:34;32.88;;;10.05;;
78183;SDS011;67442;44.570;18.610;2023-07-02T04:08:02;30.40;;;9.75;;
78183;SDS011;67442;44.570;18.610;2023-07-02T04:10:33;29.08;;;10.30;;
78183;SDS011;67442;44.570;18.610;2023-07-02T04:13:00;25.73;;;9.70;;
78183;SDS011;67442;44.570;18.610;2023-07-02T04:15:28;27.17;;;9.55;;
78183;SDS011;67442;44.570;18.610;2023-07-02T04:17:56;24.08;;;8.98;;
78183;SDS011;67442;44.570;18.610;2023-07-02T04:20:23;27.50;;;9.32;;
78183;SDS011;67442;44.570;18.610;2023-07-02T04:22:51;24.38;;;9.45;;
78183;SDS011;67442;44.570;18.610;2023-07-02T04:25:18;27.33;;;9.65;;
78183;SDS011;67442;44.570;18.610;2023-07-02T04:27:45;26.85;;;9.60;;
78183;SDS011;67442;44.570;18.610;2023-07-02T04:30:12;27.88;;;10.43;;
78183;SDS011;67442;44.570;18.610;2023-07-02T04:32:40;31.83;;;9.73;;
78183;SDS011;67442;44.570;18.610;2023-07-02T04:35:07;24.23;;;9.07;;
78183;SDS011;67442;44.570;18.610;2023-07-02T04:37:35;29.45;;;10.23;;
78183;SDS011;67442;44.570;18.610;2023-07-02T04:40:01;25.92;;;9.52;;
78183;SDS011;67442;44.570;18.610;2023-07-02T04:42:32;21.92;;;8.80;;
78183;SDS011;67442;44.570;18.610;2023-07-02T04:45:04;25.10;;;8.93;;
78183;SDS011;67442;44.570;18.610;2023-07-02T04:47:34;25.58;;;9.77;;
78183;SDS011;67442;44.570;18.610;2023-07-02T04:50:01;21.38;;;8.45;;
78183;SDS011;67442;44.570;18.610;2023-07-02T04:52:28;25.75;;;8.77;;
78183;SDS011;67442;44.570;18.610;2023-07-02T04:54:56;23.05;;;8.93;;
78183;SDS011;67442;44.570;18.610;2023-07-02T04:57:23;26.10;;;8.95;;
78183;SDS011;67442;44.570;18.610;2023-07-02T04:59:54;24.55;;;8.73;;
78183;SDS011;67442;44.570;18.610;2023-07-02T05:02:21;22.42;;;8.85;;
78183;SDS011;67442;44.570;18.610;2023-07-02T05:04:47;27.60;;;9.32;;
78183;SDS011;67442;44.570;18.610;2023-07-02T05:07:15;26.08;;;9.00;;
78183;SDS011;67442;44.570;18.610;2023-07-02T05:09:42;30.27;;;9.10;;
78183;SDS011;67442;44.570;18.610;2023-07-02T05:12:09;22.02;;;8.45;;
78183;SDS011;67442;44.570;18.610;2023-07-02T05:14:37;24.35;;;9.65;;
78183;SDS011;67442;44.570;18.610;2023-07-02T05:17:04;27.60;;;9.25;;
78183;SDS011;67442;44.570;18.610;2023-07-02T05:19:31;27.02;;;9.32;;
78183;SDS011;67442;44.570;18.610;2023-07-02T05:21:58;24.00;;;8.57;;
78183;SDS011;67442;44.570;18.610;2023-07-02T05:24:26;24.63;;;8.95;;
78183;SDS011;67442;44.570;18.610;2023-07-02T05:26:52;30.13;;;8.95;;
78183;SDS011;67442;44.570;18.610;2023-07-02T05:29:20;25.08;;;8.57;;
78183;SDS011;67442;44.570;18.610;2023-07-02T05:31:47;21.73;;;9.05;;
78183;SDS011;67442;44.570;18.610;2023-07-02T05:34:14;24.00;;;8.90;;
78183;SDS011;67442;44.570;18.610;2023-07-02T05:36:41;27.67;;;8.63;;
78183;SDS011;67442;44.570;18.610;2023-07-02T05:39:08;21.60;;;9.00;;
78183;SDS011;67442;44.570;18.610;2023-07-02T05:41:35;20.98;;;8.77;;
78183;SDS011;67442;44.570;18.610;2023-07-02T05:44:02;19.77;;;8.25;;
78183;SDS011;67442;44.570;18.610;2023-07-02T05:46:30;27.77;;;9.30;;
78183;SDS011;67442;44.570;18.610;2023-07-02T05:48:57;25.70;;;8.55;;
78183;SDS011;67442;44.570;18.610;2023-07-02T05:51:23;22.42;;;9.00;;
78183;SDS011;67442;44.570;18.610;2023-07-02T05:53:51;19.67;;;8.60;;
78183;SDS011;67442;44.570;18.610;2023-07-02T05:56:18;23.65;;;8.80;;
78183;SDS011;67442;44.570;18.610;2023-07-02T05:58:48;21.83;;;8.25;;
78183;SDS011;67442;44.570;18.610;2023-07-02T06:01:15;25.95;;;8.35;;
78183;SDS011;67442;44.570;18.610;2023-07-02T06:03:43;24.20;;;8.00;;
78183;SDS011;67442;44.570;18.610;2023-07-02T06:06:11;18.70;;;8.75;;
78183;SDS011;67442;44.570;18.610;2023-07-02T06:08:38;22.23;;;8.45;;
78183;SDS011;67442;44.570;18.610;2023-07-02T06:11:05;25.15;;;9.23;;
78183;SDS011;67442;44.570;18.610;2023-07-02T06:13:32;20.42;;;8.25;;
78183;SDS011;67442;44.570;18.610;2023-07-02T06:16:03;23.25;;;8.07;;
78183;SDS011;67442;44.570;18.610;2023-07-02T06:18:31;22.25;;;8.30;;
78183;SDS011;67442;44.570;18.610;2023-07-02T06:20:58;19.85;;;8.75;;
78183;SDS011;67442;44.570;18.610;2023-07-02T06:23:25;21.98;;;8.70;;
78183;SDS011;67442;44.570;18.610;2023-07-02T06:25:52;21.50;;;8.40;;
78183;SDS011;67442;44.570;18.610;2023-07-02T06:28:25;24.77;;;7.60;;
78183;SDS011;67442;44.570;18.610;2023-07-02T06:30:53;25.77;;;8.95;;
78183;SDS011;67442;44.570;18.610;2023-07-02T06:33:20;18.70;;;7.82;;
78183;SDS011;67442;44.570;18.610;2023-07-02T06:35:48;23.55;;;7.50;;
78183;SDS011;67442;44.570;18.610;2023-07-02T06:38:15;22.48;;;8.55;;
78183;SDS011;67442;44.570;18.610;2023-07-02T06:40:42;23.23;;;8.35;;
78183;SDS011;67442;44.570;18.610;2023-07-02T06:43:09;18.85;;;8.38;;
78183;SDS011;67442;44.570;18.610;2023-07-02T06:45:37;24.58;;;9.23;;
78183;SDS011;67442;44.570;18.610;2023-07-02T06:48:04;22.83;;;8.07;;
78183;SDS011;67442;44.570;18.610;2023-07-02T06:50:36;18.63;;;8.45;;
78183;SDS011;67442;44.570;18.610;2023-07-02T06:53:07;19.50;;;8.85;;
78183;SDS011;67442;44.570;18.610;2023-07-02T06:55:34;17.60;;;7.70;;
78183;SDS011;67442;44.570;18.610;2023-07-02T06:58:02;22.02;;;7.85;;
78183;SDS011;67442;44.570;18.610;2023-07-02T07:00:34;20.95;;;8.07;;
78183;SDS011;67442;44.570;18.610;2023-07-02T07:03:02;26.45;;;8.70;;
78183;SDS011;67442;44.570;18.610;2023-07-02T07:05:30;22.63;;;7.97;;
78183;SDS011;67442;44.570;18.610;2023-07-02T07:07:57;22.27;;;7.82;;
78183;SDS011;67442;44.570;18.610;2023-07-02T07:10:24;20.50;;;7.57;;
78183;SDS011;67442;44.570;18.610;2023-07-02T07:12:51;27.33;;;7.95;;
78183;SDS011;67442;44.570;18.610;2023-07-02T07:15:19;21.60;;;8.25;;
78183;SDS011;67442;44.570;18.610;2023-07-02T07:17:46;19.55;;;8.07;;
78183;SDS011;67442;44.570;18.610;2023-07-02T07:20:14;20.00;;;8.32;;
78183;SDS011;67442;44.570;18.610;2023-07-02T07:22:41;22.23;;;8.18;;
78183;SDS011;67442;44.570;18.610;2023-07-02T07:25:13;19.48;;;7.90;;
78183;SDS011;67442;44.570;18.610;2023-07-02T07:27:44;19.38;;;7.75;;
78183;SDS011;67442;44.570;18.610;2023-07-02T07:30:15;19.77;;;7.30;;
78183;SDS011;67442;44.570;18.610;2023-07-02T07:32:50;22.00;;;7.60;;
78183;SDS011;67442;44.570;18.610;2023-07-02T07:35:18;18.55;;;8.10;;
78183;SDS011;67442;44.570;18.610;2023-07-02T07:37:51;18.25;;;7.68;;
78183;SDS011;67442;44.570;18.610;2023-07-02T07:40:22;22.30;;;8.00;;
78183;SDS011;67442;44.570;18.610;2023-07-02T07:42:49;15.13;;;7.35;;
78183;SDS011;67442;44.570;18.610;2023-07-02T07:45:17;19.63;;;7.82;;
78183;SDS011;67442;44.570;18.610;2023-07-02T07:47:44;14.00;;;7.35;;
78183;SDS011;67442;44.570;18.610;2023-07-02T07:50:15;20.48;;;7.60;;
78183;SDS011;67442;44.570;18.610;2023-07-02T07:52:42;17.83;;;8.25;;
78183;SDS011;67442;44.570;18.610;2023-07-02T07:55:09;18.70;;;7.72;;
78183;SDS011;67442;44.570;18.610;2023-07-02T07:57:40;15.63;;;7.45;;
78183;SDS011;67442;44.570;18.610;2023-07-02T08:00:11;21.23;;;8.18;;
78183;SDS011;67442;44.570;18.610;2023-07-02T08:02:45;19.92;;;8.35;;
78183;SDS011;67442;44.570;18.610;2023-07-02T08:05:12;23.52;;;9.05;;
78183;SDS011;67442;44.570;18.610;2023-07-02T08:07:39;28.60;;;10.23;;
78183;SDS011;67442;44.570;18.610;2023-07-02T08:10:06;20.10;;;8.85;;
78183;SDS011;67442;44.570;18.610;2023-07-02T08:12:34;19.48;;;7.90;;
78183;SDS011;67442;44.570;18.610;2023-07-02T08:15:00;16.75;;;8.20;;
78183;SDS011;67442;44.570;18.610;2023-07-02T08:20:52;17.50;;;8.80;;
78183;SDS011;67442;44.570;18.610;2023-07-02T08:23:43;22.25;;;9.43;;
78183;SDS011;67442;44.570;18.610;2023-07-02T08:26:13;19.88;;;8.60;;
78183;SDS011;67442;44.570;18.610;2023-07-02T08:28:44;19.70;;;9.73;;
78183;SDS011;67442;44.570;18.610;2023-07-02T08:31:16;17.50;;;8.88;;
78183;SDS011;67442;44.570;18.610;2023-07-02T08:33:47;17.63;;;9.48;;
78183;SDS011;67442;44.570;18.610;2023-07-02T08:36:18;20.13;;;8.98;;
78183;SDS011;67442;44.570;18.610;2023-07-02T08:38:50;15.60;;;8.50;;
78183;SDS011;67442;44.570;18.610;2023-07-02T08:41:21;16.05;;;8.05;;
78183;SDS011;67442;44.570;18.610;2023-07-02T08:43:49;15.77;;;8.35;;
78183;SDS011;67442;44.570;18.610;2023-07-02T08:46:18;18.17;;;8.63;;
78183;SDS011;67442;44.570;18.610;2023-07-02T08:49:07;15.85;;;7.97;;
78183;SDS011;67442;44.570;18.610;2023-07-02T08:51:38;17.95;;;8.50;;
78183;SDS011;67442;44.570;18.610;2023-07-02T08:54:10;18.02;;;9.55;;
78183;SDS011;67442;44.570;18.610;2023-07-02T08:56:55;15.18;;;8.85;;
78183;SDS011;67442;44.570;18.610;2023-07-02T08:59:22;17.33;;;8.52;;
78183;SDS011;67442;44.570;18.610;2023-07-02T09:01:51;18.10;;;8.98;;
78183;SDS011;67442;44.570;18.610;2023-07-02T09:04:18;15.52;;;8.77;;
78183;SDS011;67442;44.570;18.610;2023-07-02T09:07:06;17.63;;;8.27;;
78183;SDS011;67442;44.570;18.610;2023-07-02T09:09:47;17.75;;;9.32;;
78183;SDS011;67442;44.570;18.610;2023-07-02T09:12:27;18.27;;;8.45;;
78183;SDS011;67442;44.570;18.610;2023-07-02T09:14:58;16.48;;;9.10;;
78183;SDS011;67442;44.570;18.610;2023-07-02T09:17:35;18.42;;;9.02;;
78183;SDS011;67442;44.570;18.610;2023-07-02T09:20:03;20.42;;;8.93;;
78183;SDS011;67442;44.570;18.610;2023-07-02T09:22:34;30.10;;;11.27;;
78183;SDS011;67442;44.570;18.610;2023-07-02T09:25:02;58.22;;;18.00;;
78183;SDS011;67442;44.570;18.610;2023-07-02T09:27:38;72.28;;;20.13;;
78183;SDS011;67442;44.570;18.610;2023-07-02T09:30:09;257.58;;;47.67;;
78183;SDS011;67442;44.570;18.610;2023-07-02T09:32:40;334.20;;;63.20;;
78183;SDS011;67442;44.570;18.610;2023-07-02T09:35:06;309.77;;;58.95;;
78183;SDS011;67442;44.570;18.610;2023-07-02T09:37:38;280.05;;;55.60;;
78183;SDS011;67442;44.570;18.610;2023-07-02T09:40:08;270.23;;;57.03;;
78183;SDS011;67442;44.570;18.610;2023-07-02T09:42:38;254.40;;;53.83;;
78183;SDS011;67442;44.570;18.610;2023-07-02T09:45:08;240.80;;;51.30;;
78183;SDS011;67442;44.570;18.610;2023-07-02T09:47:37;247.07;;;53.65;;
78183;SDS011;67442;44.570;18.610;2023-07-02T09:52:37;233.25;;;48.30;;
78183;SDS011;67442;44.570;18.610;2023-07-02T09:55:04;239.25;;;50.25;;
78183;SDS011;67442;44.570;18.610;2023-07-02T09:57:37;236.30;;;49.15;;
78183;SDS011;67442;44.570;18.610;2023-07-02T10:00:06;208.57;;;47.40;;
78183;SDS011;67442;44.570;18.610;2023-07-02T10:02:36;226.73;;;47.70;;
78183;SDS011;67442;44.570;18.610;2023-07-02T10:05:03;216.93;;;46.53;;
78183;SDS011;67442;44.570;18.610;2023-07-02T10:07:31;212.00;;;43.80;;
78183;SDS011;67442;44.570;18.610;2023-07-02T10:09:59;195.75;;;44.03;;
78183;SDS011;67442;44.570;18.610;2023-07-02T10:12:29;193.93;;;43.88;;
78183;SDS011;67442;44.570;18.610;2023-07-02T10:15:00;192.07;;;42.22;;
78183;SDS011;67442;44.570;18.610;2023-07-02T10:17:28;180.27;;;41.05;;
78183;SDS011;67442;44.570;18.610;2023-07-02T10:20:03;170.60;;;39.65;;
78183;SDS011;67442;44.570;18.610;2023-07-02T10:22:42;178.80;;;41.65;;
78183;SDS011;67442;44.570;18.610;2023-07-02T10:25:26;163.77;;;38.28;;
78183;SDS011;67442;44.570;18.610;2023-07-02T10:28:13;163.00;;;39.63;;
78183;SDS011;67442;44.570;18.610;2023-07-02T10:30:41;143.25;;;36.58;;
78183;SDS011;67442;44.570;18.610;2023-07-02T10:35:39;142.05;;;37.13;;
78183;SDS011;67442;44.570;18.610;2023-07-02T10:38:18;149.32;;;35.25;;
78183;SDS011;67442;44.570;18.610;2023-07-02T10:40:56;144.35;;;34.55;;
78183;SDS011;67442;44.570;18.610;2023-07-02T10:43:29;133.20;;;34.28;;
78183;SDS011;67442;44.570;18.610;2023-07-02T10:46:00;138.98;;;32.85;;
78183;SDS011;67442;44.570;18.610;2023-07-02T10:48:30;130.65;;;32.55;;
78183;SDS011;67442;44.570;18.610;2023-07-02T10:50:57;131.73;;;34.50;;
78183;SDS011;67442;44.570;18.610;2023-07-02T10:53:24;128.95;;;32.38;;
78183;SDS011;67442;44.570;18.610;2023-07-02T10:55:55;109.75;;;32.38;;
78183;SDS011;67442;44.570;18.610;2023-07-02T10:58:23;133.45;;;32.45;;
78183;SDS011;67442;44.570;18.610;2023-07-02T11:00:50;135.73;;;32.90;;
78183;SDS011;67442;44.570;18.610;2023-07-02T11:03:21;128.68;;;32.85;;
78183;SDS011;67442;44.570;18.610;2023-07-02T11:06:04;122.55;;;31.95;;
78183;SDS011;67442;44.570;18.610;2023-07-02T11:08:35;130.75;;;31.05;;
78183;SDS011;67442;44.570;18.610;2023-07-02T11:11:09;130.35;;;32.97;;
78183;SDS011;67442;44.570;18.610;2023-07-02T11:13:46;113.50;;;31.13;;
78183;SDS011;67442;44.570;18.610;2023-07-02T11:16:26;114.75;;;29.77;;
78183;SDS011;67442;44.570;18.610;2023-07-02T11:19:16;111.40;;;30.80;;
78183;SDS011;67442;44.570;18.610;2023-07-02T11:21:50;115.10;;;30.45;;
78183;SDS011;67442;44.570;18.610;2023-07-02T11:24:26;108.55;;;29.42;;
78183;SDS011;67442;44.570;18.610;2023-07-02T11:27:00;112.03;;;29.38;;
78183;SDS011;67442;44.570;18.610;2023-07-02T11:29:29;108.15;;;29.17;;
78183;SDS011;67442;44.570;18.610;2023-07-02T11:32:05;125.80;;;30.88;;
78183;SDS011;67442;44.570;18.610;2023-07-02T11:34:40;106.03;;;30.58;;
78183;SDS011;67442;44.570;18.610;2023-07-02T11:37:07;117.22;;;29.75;;
78183;SDS011;67442;44.570;18.610;2023-07-02T11:39:34;104.32;;;29.38;;
78183;SDS011;67442;44.570;18.610;2023-07-02T11:42:05;107.65;;;28.85;;
78183;SDS011;67442;44.570;18.610;2023-07-02T11:44:36;105.93;;;28.25;;
78183;SDS011;67442;44.570;18.610;2023-07-02T11:47:04;93.03;;;28.83;;
78183;SDS011;67442;44.570;18.610;2023-07-02T11:49:32;114.03;;;28.92;;
78183;SDS011;67442;44.570;18.610;2023-07-02T11:51:59;105.55;;;29.20;;
78183;SDS011;67442;44.570;18.610;2023-07-02T11:54:26;111.40;;;27.65;;
78183;SDS011;67442;44.570;18.610;2023-07-02T11:56:54;103.50;;;28.63;;
78183;SDS011;67442;44.570;18.610;2023-07-02T11:59:25;98.00;;;28.10;;
78183;SDS011;67442;44.570;18.610;2023-07-02T12:01:52;100.65;;;27.50;;
78183;SDS011;67442;44.570;18.610;2023-07-02T12:04:19;95.82;;;28.33;;
78183;SDS011;67442;44.570;18.610;2023-07-02T12:06:47;92.32;;;27.45;;
78183;SDS011;67442;44.570;18.610;2023-07-02T12:09:14;101.05;;;28.55;;
78183;SDS011;67442;44.570;18.610;2023-07-02T12:11:41;88.93;;;27.55;;
78183;SDS011;67442;44.570;18.610;2023-07-02T12:14:11;97.30;;;27.08;;
78183;SDS011;67442;44.570;18.610;2023-07-02T12:16:41;90.03;;;26.88;;
78183;SDS011;67442;44.570;18.610;2023-07-02T12:19:13;100.05;;;28.35;;
78183;SDS011;67442;44.570;18.610;2023-07-02T12:21:40;94.38;;;26.55;;
78183;SDS011;67442;44.570;18.610;2023-07-02T12:24:07;95.68;;;27.20;;
78183;SDS011;67442;44.570;18.610;2023-07-02T12:26:39;102.43;;;28.02;;
78183;SDS011;67442;44.570;18.610;2023-07-02T12:29:06;95.57;;;25.38;;
78183;SDS011;67442;44.570;18.610;2023-07-02T12:31:34;85.57;;;26.15;;
78183;SDS011;67442;44.570;18.610;2023-07-02T12:34:05;87.63;;;26.10;;
78183;SDS011;67442;44.570;18.610;2023-07-02T12:36:32;87.75;;;25.65;;
78183;SDS011;67442;44.570;18.610;2023-07-02T12:38:59;91.65;;;27.90;;
78183;SDS011;67442;44.570;18.610;2023-07-02T12:41:31;86.78;;;25.95;;
78183;SDS011;67442;44.570;18.610;2023-07-02T12:43:58;78.32;;;24.70;;
78183;SDS011;67442;44.570;18.610;2023-07-02T12:46:26;85.20;;;25.60;;
78183;SDS011;67442;44.570;18.610;2023-07-02T12:48:57;82.93;;;27.15;;
78183;SDS011;67442;44.570;18.610;2023-07-02T12:51:24;81.55;;;26.17;;
78183;SDS011;67442;44.570;18.610;2023-07-02T12:53:51;82.05;;;25.40;;
78183;SDS011;67442;44.570;18.610;2023-07-02T12:56:19;79.38;;;24.73;;
78183;SDS011;67442;44.570;18.610;2023-07-02T12:58:46;79.82;;;24.80;;
78183;SDS011;67442;44.570;18.610;2023-07-02T13:01:19;78.43;;;25.45;;
78183;SDS011;67442;44.570;18.610;2023-07-02T13:03:49;81.97;;;26.40;;
78183;SDS011;67442;44.570;18.610;2023-07-02T13:06:20;85.43;;;24.80;;
78183;SDS011;67442;44.570;18.610;2023-07-02T13:08:47;83.47;;;25.67;;
78183;SDS011;67442;44.570;18.610;2023-07-02T13:11:15;85.40;;;25.05;;
78183;SDS011;67442;44.570;18.610;2023-07-02T13:13:42;79.43;;;24.63;;
78183;SDS011;67442;44.570;18.610;2023-07-02T13:16:09;82.35;;;24.00;;
78183;SDS011;67442;44.570;18.610;2023-07-02T13:18:36;75.03;;;24.02;;
78183;SDS011;67442;44.570;18.610;2023-07-02T13:21:04;89.90;;;24.88;;
78183;SDS011;67442;44.570;18.610;2023-07-02T13:23:35;80.85;;;25.10;;
78183;SDS011;67442;44.570;18.610;2023-07-02T13:26:02;73.80;;;23.17;;
78183;SDS011;67442;44.570;18.610;2023-07-02T13:28:29;73.15;;;23.60;;
78183;SDS011;67442;44.570;18.610;2023-07-02T13:30:57;76.28;;;24.02;;
78183;SDS011;67442;44.570;18.610;2023-07-02T13:33:24;81.82;;;26.02;;
78183;SDS011;67442;44.570;18.610;2023-07-02T13:35:54;78.80;;;23.90;;
78183;SDS011;67442;44.570;18.610;2023-07-02T13:38:21;71.75;;;24.13;;
78183;SDS011;67442;44.570;18.610;2023-07-02T13:40:49;70.88;;;24.48;;
78183;SDS011;67442;44.570;18.610;2023-07-02T13:43:16;76.38;;;24.80;;
78183;SDS011;67442;44.570;18.610;2023-07-02T13:45:44;79.38;;;24.83;;
78183;SDS011;67442;44.570;18.610;2023-07-02T13:48:11;77.63;;;24.20;;
78183;SDS011;67442;44.570;18.610;2023-07-02T13:50:39;77.72;;;23.05;;
78183;SDS011;67442;44.570;18.610;2023-07-02T13:53:05;71.43;;;23.05;;
78183;SDS011;67442;44.570;18.610;2023-07-02T13:55:38;80.32;;;25.20;;
78183;SDS011;67442;44.570;18.610;2023-07-02T13:58:05;71.32;;;23.73;;
78183;SDS011;67442;44.570;18.610;2023-07-02T14:00:36;76.78;;;23.70;;
78183;SDS011;67442;44.570;18.610;2023-07-02T14:03:04;74.28;;;24.63;;
78183;SDS011;67442;44.570;18.610;2023-07-02T14:05:31;77.63;;;24.33;;
78183;SDS011;67442;44.570;18.610;2023-07-02T14:08:03;72.68;;;23.73;;
78183;SDS011;67442;44.570;18.610;2023-07-02T14:10:34;77.30;;;24.77;;
78183;SDS011;67442;44.570;18.610;2023-07-02T14:13:01;80.95;;;23.73;;
78183;SDS011;67442;44.570;18.610;2023-07-02T14:15:28;71.57;;;23.80;;
78183;SDS011;67442;44.570;18.610;2023-07-02T14:17:55;72.82;;;24.55;;
78183;SDS011;67442;44.570;18.610;2023-07-02T14:20:23;73.07;;;23.75;;
78183;SDS011;67442;44.570;18.610;2023-07-02T14:22:54;69.57;;;23.33;;
78183;SDS011;67442;44.570;18.610;2023-07-02T14:25:24;66.93;;;23.45;;
78183;SDS011;67442;44.570;18.610;2023-07-02T14:27:56;61.33;;;21.80;;
78183;SDS011;67442;44.570;18.610;2023-07-02T14:30:23;68.32;;;22.75;;
78183;SDS011;67442;44.570;18.610;2023-07-02T14:32:50;72.93;;;24.48;;